Vliegveldwaarnemingen Nederland - (AUTO) METAR

Luchtvaartmeteorologische informatie voor operationeel gebruik en vluchtvoorbereiding is beschikbaar op www.luchtvaartmeteo.nl.

ZCZC
SA261555 EHFS     VLISSINGEN AWS   NLD   8 m.
METAR EHFS 261555Z AUTO 25024KT 9999 BKN023/// 17/13 Q1020=

ZCZC
SA261555 EHSG     BSA   NLD   43 m.
METAR EHSG 261555Z AUTO 20027KT 9999 SCT030/// 14/12 Q1021=

ZCZC
SA261625 EHKD     DE KOOY/DE KOOY   NLD   1 m.
METAR EHKD 261625Z AUTO 23018KT 190V260 9999 OVC029/// 15/12 Q1018
BLU NOSIG=

ZCZC
SA261625 EHFD     F3-FB-1   NLD   50 m.
METAR EHFD 261625Z AUTO 23018KT 8000 DZ FEW002/// SCT006/// BKN009///
12/11 Q1013=

ZCZC
SA261625 EHAM     AMSTERDAM/SCHIPHOL   NLD   -3 m.
METAR EHAM 261625Z 24019G29KT 210V270 9999 FEW020 BKN036 17/11 Q1019
NOSIG=

ZCZC
SA261625 EHVL     VLIELAND   NLD   10 m.
METAR EHVL 261625Z AUTO 23026KT 6000 BR FEW030/// BKN034/// BKN038///
14/12 Q1017
WHT RMK TS INFO NOT AVBL=

ZCZC
SA261625 EHJR     K13-A   NLD   37 m.
METAR EHJR 261625Z AUTO 23024KT //// // ///////// 13/11 Q1017 RE//
W///H12=

ZCZC
SA261625 EHLE     LELYSTAD/LELYSTAD   NLD   -3 m.
METAR EHLE 261625Z AUTO 24014KT 210V280 9999 BKN029 OVC033 17/11
Q1019 NOSIG=

ZCZC
SA261625 EHLW     LEEUWARDEN/LEEUWARDEN   NLD   1 m.
METAR EHLW 261625Z AUTO 24015KT 200V270 9999 SCT018/// BKN023///
OVC030/// 15/11 Q1017
WHT RMK TS INFO NOT AVBL=

ZCZC
SA261625 EHDL     ARNHEM/DEELEN   NLD   48 m.
METAR EHDL 261625Z AUTO 25015KT 170V330 9999 FEW034/// SCT039///
BKN052/// 18/10 Q1019
BLU RMK TS INFO NOT AVBL=

ZCZC
SA261625 EHGG     GRONINGEN/EELDE   NLD   5 m.
METAR EHGG 261625Z AUTO 25011G21KT 210V290 9999 FEW026 BKN029 BKN037
16/10 Q1017 NOSIG=

ZCZC
SA261625 EHSC     LICHTEILAND GOEREE   NLD   22 m.
METAR EHSC 261625Z AUTO 23030KT 9999 ///////// 14/12 Q1020 W14/H14=

ZCZC
SA261625 EHSA     EURO PLATFORM   NLD   19 m.
METAR EHSA 261625Z AUTO 21028KT 9999 ///////// 14/12 Q1020 W13/H16=

ZCZC
SA261625 EHWO     WOENSDRECHT/WOENSDRECHT   NLD   19 m.
METAR EHWO 261625Z AUTO 24017KT 9999 SCT031/// OVC035/// 19/11 Q1021 BLU=

ZCZC
SA261625 EHRD     ROTTERDAM/THE HAGUE AIRPORT   NLD   -5 m.
METAR EHRD 261625Z AUTO 25019G29KT 200V280 9999 BKN029 17/11 Q1020
NOSIG=

ZCZC
SA261625 EHGR     GILZE-RIJEN/GILZE-RIJEN   NLD   14 m.
METAR EHGR 261625Z AUTO 25009KT 200V280 9999 BKN035/// OVC042///
19/12 Q1020
BLU RMK TS INFO NOT AVBL=

ZCZC
SA261625 EHEH     EINDHOVEN/EINDHOVEN   NLD   22 m.
METAR EHEH 261625Z AUTO 24015KT 200V270 9999 SCT040/// OVC044///
19/11 Q1020
BLU NOSIG=

ZCZC
SA261625 EHVK     VOLKEL/VOLKEL   NLD   21 m.
METAR EHVK 261625Z AUTO 24012KT 200V290 9999 SCT039/// OVC044///
20/11 Q1019
BLU RMK TS INFO NOT AVBL=

ZCZC
SA261625 EHBK     MAASTRICHT/MAASTRICHT-AACHEN   NLD   114 m.
METAR EHBK 261625Z AUTO 25011G21KT 200V300 9999 SCT042 BKN046 19/11
Q1021 NOSIG=

ZCZC
SA261625 EHKV     K14-FA-1C   NLD   41 m.
METAR EHKV 261625Z AUTO 24028KT 9999 FEW028 BKN034 OVC038 13/11
Q////=

ZCZC
SA261625 EHMG     L9-FF-1   NLD   44 m.
METAR EHMG 261625Z AUTO 23026KT 3900 BR FEW018 BKN021 OVC024 13/12
Q1017=

ZCZC
SA261625 EHMA     AWG-1   NLD   40 m.
METAR EHMA 261625Z AUTO 24022KT 9999 FEW018 SCT022 BKN031 15/11
Q1017=

ZCZC
SA261625 EHDV     D15-FA-1   NLD   42 m.
METAR EHDV 261625Z AUTO 23026KT 9999 FEW038/// SCT042/// 12/// Q1013=

ZCZC
SA261625 EHAK     A12-CPP   NLD   48 m.
METAR EHAK 261625Z AUTO 22019KT 6000 -DZRA FEW002/// SCT003///
BKN012/// 11/11 Q1011 REDZ=

ZCZC
SA261625 EHQE     HOORN-A   NLD   50 m.
METAR EHQE 261625Z AUTO 23031KT 9999 BKN027 OVC032 14/12 Q1017=

ZCZC
SA261625 EHJA     J6-A   NLD   45 m.
METAR EHJA 261625Z AUTO 24034KT 9999 -RA FEW029/// SCT036///
BKN041/// 14/11 Q1015=

ZCZC
SA261625 EHPG     P11-B   NLD   41 m.
METAR EHPG 261625Z AUTO 22030KT 9999 SCT036 BKN041 OVC045 14/12
Q1018=

ZCZC
SA261625 EHHW     BUITENGAATS/BG-OHVS2      42 m.
METAR EHHW 261625Z AUTO 23016G28KT 200V260 9999 FEW008/// SCT028///
BKN033/// 13/10 Q1016=

26/05/2022 18.30 uur LT